createdAt,value
2022-11-22T00:00:17.106Z,1.72
2022-11-22T00:02:44.073Z,1.74
2022-11-22T00:05:10.969Z,1.81
2022-11-22T00:07:40.658Z,1.86
2022-11-22T00:10:09.271Z,1.90
2022-11-22T00:12:36.052Z,1.92
2022-11-22T00:15:02.730Z,1.91
2022-11-22T00:17:29.213Z,1.91
2022-11-22T00:19:55.729Z,1.92
2022-11-22T00:22:22.308Z,1.91
2022-11-22T00:24:51.375Z,1.89
2022-11-22T00:27:18.699Z,1.89
2022-11-22T00:29:45.290Z,1.87
2022-11-22T00:32:11.839Z,1.86
2022-11-22T00:34:38.486Z,1.87
2022-11-22T00:37:04.998Z,1.85
2022-11-22T00:39:31.962Z,1.86
2022-11-22T00:41:58.813Z,1.85
2022-11-22T00:44:26.486Z,1.85
2022-11-22T00:46:53.251Z,1.86
2022-11-22T00:49:19.737Z,1.88
2022-11-22T00:51:46.247Z,1.88
2022-11-22T00:54:12.774Z,1.89
2022-11-22T00:56:39.284Z,1.88
2022-11-22T00:59:05.832Z,1.87
2022-11-22T01:01:32.415Z,1.90
2022-11-22T01:03:58.931Z,1.90
2022-11-22T01:06:25.459Z,1.93
2022-11-22T01:08:52.005Z,1.93
2022-11-22T01:11:19.014Z,1.92
2022-11-22T01:13:45.567Z,1.92
2022-11-22T01:16:13.272Z,1.88
2022-11-22T01:18:40.270Z,1.87
2022-11-22T01:21:06.975Z,1.88
2022-11-22T01:23:34.647Z,1.87
2022-11-22T01:26:01.922Z,1.87
2022-11-22T01:28:28.636Z,1.85
2022-11-22T01:30:55.351Z,1.87
2022-11-22T01:33:22.041Z,1.83
2022-11-22T01:35:48.834Z,1.83
2022-11-22T01:38:15.516Z,1.87
2022-11-22T01:40:42.057Z,1.86
2022-11-22T01:43:18.611Z,1.86
2022-11-22T01:45:48.066Z,1.89
2022-11-22T01:48:42.689Z,1.93
2022-11-22T01:51:15.437Z,1.93
2022-11-22T01:53:42.640Z,1.93
2022-11-22T01:56:14.700Z,1.95
2022-11-22T01:58:44.267Z,1.95
2022-11-22T02:01:11.333Z,1.97
2022-11-22T02:03:41.903Z,1.97
2022-11-22T02:06:08.602Z,1.94
2022-11-22T02:08:42.106Z,1.93
2022-11-22T02:11:10.990Z,1.95
2022-11-22T02:13:42.429Z,1.94
2022-11-22T02:16:10.248Z,1.95
2022-11-22T02:18:37.754Z,2.04
2022-11-22T02:21:05.007Z,2.03
2022-11-22T02:23:31.454Z,2.03
2022-11-22T02:25:59.966Z,2.01
2022-11-22T02:28:29.978Z,2.06
2022-11-22T02:30:56.549Z,2.07
2022-11-22T02:33:23.101Z,2.06
2022-11-22T02:35:50.424Z,2.05
2022-11-22T02:38:24.870Z,2.07
2022-11-22T02:41:02.096Z,2.10
2022-11-22T02:43:34.952Z,2.12
2022-11-22T02:46:06.884Z,2.13
2022-11-22T02:48:33.438Z,2.14
2022-11-22T02:51:00.224Z,2.16
2022-11-22T02:53:26.861Z,2.19
2022-11-22T02:55:53.425Z,2.20
2022-11-22T02:58:19.917Z,2.21
2022-11-22T03:00:46.464Z,2.25
2022-11-22T03:03:13.017Z,2.30
2022-11-22T03:05:39.538Z,2.30
2022-11-22T03:08:06.123Z,2.32
2022-11-22T03:10:32.701Z,2.33
2022-11-22T03:12:59.765Z,2.32
2022-11-22T03:15:26.598Z,2.33
2022-11-22T03:18:00.913Z,2.33
2022-11-22T03:20:28.078Z,2.33
2022-11-22T03:22:54.644Z,2.33
2022-11-22T03:25:21.929Z,2.36
2022-11-22T03:27:49.040Z,2.37
2022-11-22T03:30:15.953Z,2.40
2022-11-22T03:32:42.489Z,2.38
2022-11-22T03:35:09.790Z,2.41
2022-11-22T03:37:36.682Z,2.44
2022-11-22T03:40:04.380Z,2.47
2022-11-22T03:42:31.513Z,2.47
2022-11-22T03:44:58.041Z,2.45
2022-11-22T03:47:24.596Z,2.46
2022-11-22T03:49:51.164Z,2.44
2022-11-22T03:52:17.716Z,2.42
2022-11-22T03:54:44.269Z,2.40
2022-11-22T03:57:10.770Z,2.37
2022-11-22T03:59:37.280Z,2.32
2022-11-22T04:02:03.934Z,2.30
2022-11-22T04:04:30.466Z,2.31
2022-11-22T04:06:56.978Z,2.28
2022-11-22T04:09:23.706Z,2.27
2022-11-22T04:11:50.245Z,2.25
2022-11-22T04:14:35.394Z,2.21
2022-11-22T04:17:01.934Z,2.21
2022-11-22T04:19:28.902Z,2.18
2022-11-22T04:21:57.097Z,2.18
2022-11-22T04:24:41.880Z,2.16
2022-11-22T04:27:08.397Z,2.09
2022-11-22T04:29:34.921Z,2.07
2022-11-22T04:32:19.901Z,2.05
2022-11-22T04:34:46.490Z,2.02
2022-11-22T04:37:13.031Z,1.96
2022-11-22T04:39:39.549Z,1.97
2022-11-22T04:42:24.584Z,1.97
2022-11-22T04:44:51.017Z,1.95
2022-11-22T04:47:38.262Z,1.86
2022-11-22T04:50:28.082Z,1.85
2022-11-22T04:52:58.237Z,1.82
2022-11-22T04:55:24.824Z,1.83
2022-11-22T04:57:57.561Z,1.76
2022-11-22T05:00:27.521Z,1.76
2022-11-22T05:02:54.096Z,1.74
2022-11-22T05:05:20.611Z,1.68
2022-11-22T05:07:47.160Z,1.65
2022-11-22T05:10:13.701Z,1.65
2022-11-22T05:12:43.421Z,1.64
2022-11-22T05:15:11.662Z,1.57
2022-11-22T05:17:38.539Z,1.51
2022-11-22T05:20:07.918Z,1.48
2022-11-22T05:22:53.654Z,1.37
2022-11-22T05:25:25.302Z,1.33
2022-11-22T05:27:54.213Z,1.30
2022-11-22T05:30:20.738Z,1.29
2022-11-22T05:32:47.252Z,1.22
2022-11-22T05:35:13.866Z,1.19
2022-11-22T05:37:40.391Z,1.14
2022-11-22T05:40:07.702Z,1.05
2022-11-22T05:42:34.480Z,1.01
2022-11-22T05:45:00.985Z,0.97
2022-11-22T05:47:27.461Z,0.89
2022-11-22T05:49:53.945Z,0.81
2022-11-22T05:52:20.468Z,0.82
2022-11-22T05:54:46.962Z,0.73
2022-11-22T05:57:13.509Z,0.68
2022-11-22T05:59:43.932Z,0.60
2022-11-22T06:02:11.024Z,0.59
2022-11-22T06:04:37.669Z,0.59
2022-11-22T06:07:09.540Z,0.57
2022-11-22T06:09:36.801Z,0.63
2022-11-22T06:12:03.525Z,0.65
2022-11-22T06:14:30.097Z,0.72
2022-11-22T06:16:56.752Z,0.74
2022-11-22T06:19:23.243Z,0.76
2022-11-22T06:21:49.844Z,0.78
2022-11-22T06:24:16.345Z,0.86
2022-11-22T06:26:42.832Z,0.90
2022-11-22T06:29:09.473Z,0.95
2022-11-22T06:31:37.037Z,1.00
2022-11-22T06:34:03.576Z,1.07
2022-11-22T06:36:32.191Z,1.09
2022-11-22T06:38:59.381Z,1.14
2022-11-22T06:41:28.472Z,1.18
2022-11-22T06:43:58.240Z,1.22
2022-11-22T06:46:26.586Z,1.28
2022-11-22T06:48:53.104Z,1.33
2022-11-22T06:51:28.582Z,1.35
2022-11-22T06:53:56.946Z,1.37
2022-11-22T06:56:26.258Z,1.39
2022-11-22T06:58:54.169Z,1.44
2022-11-22T07:01:22.064Z,1.44
2022-11-22T07:03:49.083Z,1.46
2022-11-22T07:06:17.316Z,1.53
2022-11-22T07:08:45.073Z,1.57
2022-11-22T07:11:17.504Z,1.61
2022-11-22T07:13:44.903Z,1.65
2022-11-22T07:16:14.150Z,1.70
2022-11-22T07:18:40.845Z,1.73
2022-11-22T07:21:13.128Z,1.75
2022-11-22T07:23:44.714Z,1.78
2022-11-22T07:26:12.848Z,1.81
2022-11-22T07:28:39.405Z,1.83
2022-11-22T07:31:08.551Z,1.83
2022-11-22T07:33:35.757Z,1.86
2022-11-22T07:36:24.805Z,1.86
2022-11-22T07:38:51.364Z,1.88
2022-11-22T07:41:19.485Z,1.94
2022-11-22T07:43:47.082Z,1.94
2022-11-22T07:46:23.804Z,1.96
2022-11-22T07:48:50.592Z,2.00
2022-11-22T07:51:17.444Z,2.03
2022-11-22T07:53:43.978Z,2.06
2022-11-22T07:56:11.093Z,2.11
2022-11-22T07:58:37.925Z,2.13
2022-11-22T08:01:09.197Z,2.13
2022-11-22T08:03:36.628Z,2.13
2022-11-22T08:06:05.241Z,2.19
2022-11-22T08:08:32.349Z,2.22
2022-11-22T08:10:58.933Z,2.28
2022-11-22T08:13:26.434Z,2.33
2022-11-22T08:15:54.820Z,2.38
2022-11-22T08:18:22.957Z,2.40
2022-11-22T08:20:49.489Z,2.46
2022-11-22T08:23:16.000Z,2.44
2022-11-22T08:25:42.475Z,2.47
2022-11-22T08:28:09.000Z,2.48
2022-11-22T08:30:35.484Z,2.53
2022-11-22T08:33:02.038Z,2.57
2022-11-22T08:35:29.086Z,2.62
2022-11-22T08:37:57.320Z,2.66
2022-11-22T08:40:24.107Z,2.67
2022-11-22T08:42:54.041Z,2.67
2022-11-22T08:45:20.613Z,2.75
2022-11-22T08:47:49.013Z,2.78
2022-11-22T08:50:17.123Z,2.85
2022-11-22T08:52:43.657Z,2.88
2022-11-22T08:55:10.207Z,2.91
2022-11-22T08:57:36.688Z,2.97
2022-11-22T09:00:04.999Z,2.96
2022-11-22T09:02:31.577Z,3.02
2022-11-22T09:04:58.053Z,3.10
2022-11-22T09:10:12.898Z,3.19
2022-11-22T09:12:43.532Z,3.27
2022-11-22T09:15:10.770Z,3.31
2022-11-22T09:17:37.314Z,3.40
2022-11-22T09:20:04.612Z,3.47
2022-11-22T09:22:31.884Z,3.52
2022-11-22T09:24:58.381Z,3.58
2022-11-22T09:27:24.908Z,3.66
2022-11-22T09:29:51.568Z,3.70
2022-11-22T09:32:18.234Z,3.77
2022-11-22T09:34:44.753Z,3.82
2022-11-22T09:37:11.260Z,3.89
2022-11-22T09:39:37.783Z,3.97
2022-11-22T09:42:36.521Z,4.04
2022-11-22T09:45:40.028Z,4.06
2022-11-22T09:48:36.316Z,4.08
2022-11-22T09:51:27.394Z,4.18
2022-11-22T09:54:24.616Z,4.19
2022-11-22T09:56:55.697Z,4.20
2022-11-22T09:59:28.299Z,4.30
2022-11-22T10:02:25.465Z,4.43
2022-11-22T10:05:00.200Z,4.51
2022-11-22T10:07:32.868Z,4.58
2022-11-22T10:10:13.203Z,4.68
2022-11-22T10:12:55.189Z,4.76
2022-11-22T10:15:40.419Z,4.88
2022-11-22T10:18:32.041Z,5.00
2022-11-22T10:20:58.682Z,5.17
2022-11-22T10:23:26.693Z,5.21
2022-11-22T10:26:02.833Z,5.29
2022-11-22T10:28:39.189Z,5.35
2022-11-22T10:31:14.709Z,5.46
2022-11-22T10:33:45.019Z,5.44
2022-11-22T10:36:23.055Z,5.42
2022-11-22T10:38:52.533Z,5.43
2022-11-22T10:41:34.973Z,5.40
2022-11-22T10:44:32.445Z,5.40
2022-11-22T10:47:12.771Z,5.38
2022-11-22T10:50:03.510Z,5.36
2022-11-22T10:52:43.861Z,5.37
2022-11-22T10:55:29.077Z,5.39
2022-11-22T10:58:26.521Z,5.41
2022-11-22T11:01:14.198Z,5.45
2022-11-22T11:03:44.358Z,5.51
2022-11-22T11:06:29.494Z,5.61
2022-11-22T11:10:08.903Z,5.73
2022-11-22T11:12:20.869Z,5.85
2022-11-22T11:14:53.577Z,5.96
2022-11-22T11:17:35.101Z,6.06
2022-11-22T11:20:11.014Z,6.21
2022-11-22T11:23:12.377Z,6.25
2022-11-22T11:25:40.339Z,6.30
2022-11-22T11:28:24.578Z,6.31
2022-11-22T11:30:55.339Z,6.32
2022-11-22T11:33:29.732Z,6.34
2022-11-22T11:36:22.034Z,6.31
2022-11-22T11:38:48.580Z,6.33
2022-11-22T11:41:20.138Z,6.34
2022-11-22T11:43:47.013Z,6.38
2022-11-22T11:46:20.616Z,6.38
2022-11-22T11:48:48.667Z,6.41
2022-11-22T11:51:20.562Z,6.45
2022-11-22T11:53:51.731Z,6.45
2022-11-22T11:56:30.136Z,6.42
2022-11-22T11:58:59.111Z,6.39
2022-11-22T12:01:26.402Z,6.36
2022-11-22T12:04:03.043Z,6.38
2022-11-22T12:06:31.305Z,6.34
2022-11-22T12:08:59.538Z,6.27
2022-11-22T12:11:48.839Z,6.18
2022-11-22T12:14:20.522Z,6.13
2022-11-22T12:16:49.478Z,6.06
2022-11-22T12:19:30.903Z,6.05
2022-11-22T12:22:29.321Z,6.03
2022-11-22T12:28:23.241Z,6.13
2022-11-22T12:30:58.245Z,6.11
2022-11-22T12:33:36.361Z,6.08
2022-11-22T12:36:06.513Z,6.07
2022-11-22T12:38:39.314Z,6.04
2022-11-22T12:41:11.865Z,5.99
2022-11-22T12:43:48.736Z,5.94
2022-11-22T12:46:26.065Z,5.88
2022-11-22T12:48:23.306Z,6.04
2022-11-22T12:48:56.858Z,5.82
2022-11-22T12:51:26.651Z,5.79
2022-11-22T12:53:59.517Z,5.77
2022-11-22T12:56:33.621Z,5.76
2022-11-22T12:59:12.584Z,5.72
2022-11-22T13:01:42.018Z,5.69
2022-11-22T13:04:11.369Z,5.64
2022-11-22T13:07:04.790Z,5.60
2022-11-22T13:09:47.188Z,5.59
2022-11-22T13:12:19.519Z,5.50
2022-11-22T13:14:52.048Z,5.44
2022-11-22T13:17:18.653Z,5.43
2022-11-22T13:19:59.698Z,5.40
2022-11-22T13:22:49.836Z,5.40
2022-11-22T13:25:25.481Z,5.40
2022-11-22T13:27:53.633Z,5.39
2022-11-22T13:30:25.881Z,5.38
2022-11-22T13:32:55.167Z,5.35
2022-11-22T13:35:30.385Z,5.28
2022-11-22T13:38:02.750Z,5.24
2022-11-22T13:41:01.540Z,5.20
2022-11-22T13:43:32.822Z,5.13
2022-11-22T13:46:01.866Z,5.08
2022-11-22T13:48:40.397Z,5.05
2022-11-22T13:51:15.497Z,5.04
2022-11-22T13:53:47.101Z,5.05
2022-11-22T13:56:16.648Z,4.98
2022-11-22T13:58:50.430Z,4.95
2022-11-22T14:01:33.290Z,4.93
2022-11-22T14:04:21.093Z,4.89
2022-11-22T14:06:48.957Z,4.85
2022-11-22T14:09:53.797Z,4.85
2022-11-22T14:12:29.349Z,4.80
2022-11-22T14:15:17.593Z,4.73
2022-11-22T14:17:44.147Z,4.71
2022-11-22T14:20:28.405Z,4.68
2022-11-22T14:23:01.400Z,4.66
2022-11-22T14:25:38.569Z,4.61
2022-11-22T14:28:38.805Z,4.52
2022-11-22T14:31:33.325Z,4.50
2022-11-22T14:34:18.047Z,4.49
2022-11-22T14:36:46.711Z,4.44
2022-11-22T14:39:44.253Z,4.46
2022-11-22T14:42:47.330Z,4.44
2022-11-22T14:45:32.674Z,4.41
2022-11-22T14:48:11.817Z,4.38
2022-11-22T14:50:38.257Z,4.36
2022-11-22T14:53:23.053Z,4.32
2022-11-22T14:56:04.156Z,4.27
2022-11-22T14:58:33.985Z,4.22
2022-11-22T15:01:18.930Z,4.21
2022-11-22T15:09:15.366Z,4.24
2022-11-22T15:09:28.317Z,4.21
2022-11-22T15:10:41.987Z,4.19
2022-11-22T15:13:17.696Z,4.18
2022-11-22T15:59:44.178Z,4.06
2022-11-22T16:02:22.617Z,4.05
2022-11-22T16:06:10.132Z,4.01
2022-11-22T16:07:48.699Z,4.01
2022-11-22T16:10:33.289Z,4.02
2022-11-22T16:13:11.228Z,4.01
2022-11-22T16:15:38.036Z,4.00
2022-11-22T16:18:10.377Z,4.01
2022-11-22T16:20:38.748Z,4.01
2022-11-22T16:23:11.949Z,3.98
2022-11-22T16:25:40.495Z,3.97
2022-11-22T16:28:29.225Z,3.97
2022-11-22T16:30:58.051Z,3.98
2022-11-22T16:33:24.804Z,3.97
2022-11-22T16:35:59.613Z,3.94
2022-11-22T16:38:27.227Z,3.96
2022-11-22T16:40:56.894Z,3.96
2022-11-22T16:43:25.605Z,3.96
2022-11-22T16:45:52.475Z,3.92
2022-11-22T16:48:31.909Z,3.94
2022-11-22T16:51:07.799Z,3.93
2022-11-22T16:53:46.786Z,3.94
2022-11-22T16:56:21.113Z,3.94
2022-11-22T16:58:49.404Z,3.94
2022-11-22T17:01:19.057Z,3.96
2022-11-22T17:03:47.413Z,3.95
2022-11-22T17:06:19.585Z,3.94
2022-11-22T17:08:47.500Z,3.96
2022-11-22T17:11:17.204Z,3.97
2022-11-22T17:13:44.550Z,3.95
2022-11-22T17:16:12.273Z,3.94
2022-11-22T17:18:39.630Z,3.95
2022-11-22T17:21:34.467Z,3.98
2022-11-22T17:24:17.265Z,4.00
2022-11-22T17:26:43.807Z,4.01
2022-11-22T17:29:18.408Z,4.05
2022-11-22T17:31:56.837Z,4.09
2022-11-22T17:34:23.388Z,4.10
2022-11-22T17:36:49.886Z,4.13
2022-11-22T17:39:16.418Z,4.14
2022-11-22T17:41:42.965Z,4.16
2022-11-22T17:44:15.642Z,4.14
2022-11-22T17:46:44.034Z,4.13
2022-11-22T17:49:15.652Z,4.13
2022-11-22T17:51:42.731Z,4.13
2022-11-22T17:54:09.401Z,4.13
2022-11-22T17:56:37.265Z,4.13
2022-11-22T17:59:04.253Z,4.13
2022-11-22T18:01:30.953Z,4.12
2022-11-22T18:03:57.590Z,4.12
2022-11-22T18:06:26.170Z,4.13
2022-11-22T18:08:52.717Z,4.16
2022-11-22T18:11:19.245Z,4.15
2022-11-22T18:13:45.914Z,4.14
2022-11-22T18:16:15.393Z,4.12
2022-11-22T18:18:56.827Z,4.12
2022-11-22T18:21:24.645Z,4.11
2022-11-22T18:23:51.456Z,4.14
2022-11-22T18:31:52.888Z,4.14
2022-11-22T18:34:20.501Z,4.14
2022-11-22T18:37:04.308Z,4.15
2022-11-22T18:39:34.744Z,4.17
2022-11-22T18:42:01.628Z,4.22
2022-11-22T18:44:28.219Z,4.19
2022-11-22T18:46:54.988Z,4.19
2022-11-22T18:49:21.550Z,4.17
2022-11-22T18:51:48.099Z,4.15
2022-11-22T18:54:14.761Z,4.12
2022-11-22T18:56:41.369Z,4.12
2022-11-22T18:59:12.595Z,4.12
2022-11-22T19:01:39.740Z,4.08
2022-11-22T19:04:06.339Z,4.05
2022-11-22T19:06:32.836Z,4.03
2022-11-22T19:08:59.448Z,4.03
2022-11-22T19:11:28.523Z,4.01
2022-11-22T19:13:55.019Z,3.99
2022-11-22T19:16:22.988Z,3.95
2022-11-22T19:18:50.350Z,3.96
2022-11-22T19:21:20.189Z,3.97
2022-11-22T19:23:47.573Z,3.96
2022-11-22T19:26:16.333Z,3.97
2022-11-22T19:28:43.095Z,3.97
2022-11-22T19:31:12.315Z,3.97
2022-11-22T19:33:39.289Z,3.97
2022-11-22T19:36:15.138Z,3.96
2022-11-22T19:38:42.705Z,3.95
2022-11-22T19:41:20.986Z,3.93
2022-11-22T19:43:48.940Z,3.93
2022-11-22T19:46:16.368Z,3.90
2022-11-22T19:48:47.217Z,3.91
2022-11-22T19:51:15.455Z,3.91
2022-11-22T19:53:42.422Z,3.93
2022-11-22T19:56:19.483Z,3.94
2022-11-22T19:58:53.614Z,3.94
2022-11-22T20:01:21.826Z,3.92
2022-11-22T20:03:52.612Z,3.88
2022-11-22T20:06:19.893Z,3.87
2022-11-22T20:08:46.533Z,3.85
2022-11-22T20:11:16.206Z,3.85
2022-11-22T20:13:44.854Z,3.84
2022-11-22T20:16:17.382Z,3.81
2022-11-22T20:18:43.899Z,3.79
2022-11-22T20:21:11.203Z,3.80
2022-11-22T20:23:38.554Z,3.79
2022-11-22T20:26:10.346Z,3.76
2022-11-22T20:28:41.241Z,3.73
2022-11-22T20:31:08.633Z,3.72
2022-11-22T20:33:37.642Z,3.71
2022-11-22T20:36:06.419Z,3.66
2022-11-22T20:38:34.487Z,3.67
2022-11-22T20:41:02.966Z,3.67
2022-11-22T20:43:33.741Z,3.69
2022-11-22T20:46:06.488Z,3.67
2022-11-22T20:48:34.268Z,3.70
2022-11-22T20:51:02.902Z,3.72
2022-11-22T20:53:29.901Z,3.73
2022-11-22T20:55:56.542Z,3.72
2022-11-22T20:58:24.715Z,3.71
2022-11-22T21:00:51.467Z,3.72
2022-11-22T21:03:18.185Z,3.72
2022-11-22T21:05:46.427Z,3.71
2022-11-22T21:08:13.227Z,3.71
2022-11-22T21:10:39.764Z,3.71
2022-11-22T21:13:06.273Z,3.70
2022-11-22T21:15:32.819Z,3.72
2022-11-22T21:18:23.445Z,3.72
2022-11-22T21:20:46.385Z,3.73
2022-11-22T21:23:12.889Z,3.75
2022-11-22T21:25:39.746Z,3.78
2022-11-22T21:28:06.577Z,3.78
2022-11-22T21:30:33.103Z,3.80
2022-11-22T21:32:59.615Z,3.78
2022-11-22T21:35:26.165Z,3.80
2022-11-22T21:37:54.362Z,3.80
2022-11-22T21:40:20.885Z,3.86
2022-11-22T21:42:47.390Z,3.91
2022-11-22T21:45:13.965Z,3.95
2022-11-22T21:47:40.482Z,4.01
2022-11-22T21:50:11.433Z,4.02
2022-11-22T21:52:38.428Z,4.03
2022-11-22T21:55:05.500Z,4.05
2022-11-22T21:57:31.987Z,4.07
2022-11-22T21:59:58.489Z,4.07
2022-11-22T22:02:24.980Z,4.06
2022-11-22T22:04:51.475Z,4.08
2022-11-22T22:07:44.829Z,4.09
2022-11-22T22:10:05.538Z,4.10
2022-11-22T22:12:32.057Z,4.11
2022-11-22T22:14:58.569Z,4.12
2022-11-22T22:17:25.093Z,4.14
2022-11-22T22:19:52.434Z,4.14
2022-11-22T22:22:19.111Z,4.13
2022-11-22T22:24:45.614Z,4.13
2022-11-22T22:27:12.165Z,4.13
2022-11-22T22:29:38.677Z,4.12
2022-11-22T22:32:10.429Z,4.09
2022-11-22T22:34:37.369Z,4.12
2022-11-22T22:37:03.893Z,4.12
2022-11-22T22:39:30.993Z,4.06
2022-11-22T22:41:57.592Z,4.03
2022-11-22T22:44:24.142Z,4.00
2022-11-22T22:46:50.648Z,3.97
2022-11-22T22:49:17.160Z,3.99
2022-11-22T22:51:43.694Z,3.96
2022-11-22T22:54:10.837Z,3.92
2022-11-22T22:56:37.336Z,3.89
2022-11-22T22:59:05.195Z,3.90
2022-11-22T23:01:32.033Z,3.88
2022-11-22T23:04:01.225Z,3.87
2022-11-22T23:06:30.372Z,3.83
2022-11-22T23:08:57.873Z,3.85
2022-11-22T23:11:45.507Z,3.82
2022-11-22T23:14:13.264Z,3.79
2022-11-22T23:16:40.144Z,3.80
2022-11-22T23:19:07.689Z,3.76
2022-11-22T23:21:34.942Z,3.75
2022-11-22T23:24:01.966Z,3.75
2022-11-22T23:26:28.505Z,3.73
2022-11-22T23:28:55.058Z,3.74
2022-11-22T23:31:21.961Z,3.72
2022-11-22T23:33:48.496Z,3.70
2022-11-22T23:36:16.772Z,3.67
2022-11-22T23:38:43.762Z,3.68
2022-11-22T23:41:15.853Z,3.70
2022-11-22T23:43:43.101Z,3.67
2022-11-22T23:46:16.271Z,3.65
2022-11-22T23:48:47.331Z,3.66
2022-11-22T23:51:15.912Z,3.62
2022-11-22T23:53:42.506Z,3.61
2022-11-22T23:56:11.764Z,3.57
2022-11-22T23:58:38.696Z,3.61
